Time;durP1;ratioP1;P1;durP2;ratioP2;P2;SDS_P1;SDS_P2;PMS_P1;PMS_P2;Temp;Humidity;BMP_temperature;BMP_pressure;BME280_temperature;BME280_humidity;BME280_pressure;Samples;Min_cycle;Max_cycle;Signal;HPM_P1;HPM_P2
2021/07/11 00:00:22;;;;;;;8.02;4.22;;;18.60;99.90;;;;;;5110931;27;20405;-59
2021/07/11 00:02:48;;;;;;;12.48;3.90;;;18.50;99.90;;;;;;5081221;28;20386;-59
2021/07/11 00:05:17;;;;;;;8.27;4.10;;;18.50;99.90;;;;;;5072093;28;20398;-59
2021/07/11 00:07:42;;;;;;;7.77;4.20;;;18.50;99.90;;;;;;5076831;28;20394;-58
2021/07/11 00:10:09;;;;;;;7.20;3.97;;;18.40;99.90;;;;;;5083739;28;21180;-55
2021/07/11 00:12:36;;;;;;;9.82;4.40;;;18.40;99.90;;;;;;5083138;28;20386;-58
2021/07/11 00:15:07;;;;;;;8.45;4.20;;;18.30;99.90;;;;;;5082980;28;20390;-59
2021/07/11 00:17:33;;;;;;;6.10;3.45;;;18.20;99.90;;;;;;5074353;28;20966;-59
2021/07/11 00:19:59;;;;;;;8.60;3.87;;;18.20;99.90;;;;;;5080325;28;20414;-59
2021/07/11 00:22:25;;;;;;;6.22;3.28;;;18.00;99.90;;;;;;5083783;28;20729;-58
2021/07/11 00:24:51;;;;;;;9.27;3.40;;;18.00;99.90;;;;;;5081892;28;20469;-58
2021/07/11 00:27:17;;;;;;;6.70;3.20;;;17.90;99.90;;;;;;5080818;28;20466;-58
2021/07/11 00:29:42;;;;;;;6.60;4.00;;;17.90;99.90;;;;;;5076572;28;20408;-59
2021/07/11 00:32:08;;;;;;;6.73;3.17;;;17.90;99.90;;;;;;5070381;28;20378;-55
2021/07/11 00:34:35;;;;;;;7.50;3.20;;;18.00;99.90;;;;;;5077920;28;20907;-59
2021/07/11 00:37:01;;;;;;;5.72;3.10;;;17.90;99.90;;;;;;5076641;28;20394;-59
2021/07/11 00:39:26;;;;;;;6.70;2.70;;;17.90;99.90;;;;;;5085137;28;21003;-59
2021/07/11 00:41:52;;;;;;;7.75;3.35;;;17.80;99.90;;;;;;5081887;28;20393;-59
2021/07/11 00:44:18;;;;;;;6.50;2.90;;;17.90;99.90;;;;;;5086297;28;20943;-59
2021/07/11 00:46:44;;;;;;;6.40;3.10;;;17.90;99.90;;;;;;5095063;28;20390;-59
2021/07/11 00:49:10;;;;;;;7.90;3.60;;;17.90;99.90;;;;;;5090775;28;20479;-55
2021/07/11 00:51:36;;;;;;;9.77;3.50;;;17.90;99.90;;;;;;5096221;28;20492;-59
2021/07/11 00:54:02;;;;;;;9.15;3.60;;;17.80;99.90;;;;;;5099055;28;20770;-58
2021/07/11 00:56:29;;;;;;;7.00;3.25;;;17.70;99.90;;;;;;5090596;28;20376;-56
2021/07/11 00:58:55;;;;;;;8.02;3.30;;;17.70;99.90;;;;;;5092891;28;20879;-59
2021/07/11 01:01:48;;;;;;;6.55;3.30;;;17.70;99.90;;;;;;5078445;28;20414;-59
2021/07/11 01:04:18;;;;;;;9.02;3.88;;;17.70;99.90;;;;;;5080159;28;20405;-59
2021/07/11 01:06:48;;;;;;;8.10;3.15;;;17.60;99.90;;;;;;5085275;28;20391;-60
2021/07/11 01:09:19;;;;;;;7.57;3.50;;;17.60;99.90;;;;;;5078237;28;20400;-59
2021/07/11 01:11:49;;;;;;;6.80;3.30;;;17.60;99.90;;;;;;5070045;28;20388;-59
2021/07/11 01:14:15;;;;;;;6.70;3.10;;;17.60;99.90;;;;;;5069288;28;20415;-60
2021/07/11 01:16:45;;;;;;;6.30;3.00;;;17.60;99.90;;;;;;5070091;28;20464;-58
2021/07/11 01:19:34;;;;;;;7.22;3.00;;;17.50;99.90;;;;;;5069308;28;20433;-55
2021/07/11 01:22:06;;;;;;;7.07;3.10;;;17.60;99.90;;;;;;5069061;28;20387;-59
2021/07/11 01:24:33;;;;;;;8.10;3.30;;;17.60;99.90;;;;;;5069291;28;20425;-58
2021/07/11 01:27:02;;;;;;;6.50;3.33;;;17.60;99.90;;;;;;5069589;28;20445;-58
2021/07/11 01:29:29;;;;;;;5.63;2.80;;;17.60;99.90;;;;;;5068961;28;20406;-58
2021/07/11 01:31:55;;;;;;;8.30;4.10;;;17.70;99.90;;;;;;5069908;28;20403;-58
2021/07/11 01:34:22;;;;;;;5.05;2.72;;;17.70;99.90;;;;;;5069218;28;20387;-57
2021/07/11 01:36:48;;;;;;;6.00;3.00;;;17.60;99.90;;;;;;5069511;28;20394;-58
2021/07/11 01:39:14;;;;;;;7.60;3.72;;;17.60;99.90;;;;;;5069052;28;20380;-58
2021/07/11 01:41:43;;;;;;;7.32;3.20;;;17.60;99.90;;;;;;5069647;28;20494;-58
2021/07/11 01:44:10;;;;;;;6.13;3.17;;;17.50;99.90;;;;;;5067982;28;20873;-56
2021/07/11 01:46:38;;;;;;;5.90;3.40;;;17.50;99.90;;;;;;5069390;28;20379;-58
2021/07/11 01:49:04;;;;;;;5.80;2.80;;;17.50;99.90;;;;;;5068407;28;20840;-58
2021/07/11 01:51:30;;;;;;;6.60;3.20;;;17.50;99.90;;;;;;5068705;28;21005;-58
2021/07/11 01:53:55;;;;;;;8.45;3.17;;;17.50;99.90;;;;;;5069656;28;20850;-58
2021/07/11 01:56:22;;;;;;;13.10;3.30;;;17.50;99.90;;;;;;5068691;28;20386;-58
2021/07/11 01:58:48;;;;;;;9.20;3.20;;;17.50;99.90;;;;;;5069507;28;20391;-59
2021/07/11 02:01:15;;;;;;;8.32;3.80;;;17.50;99.90;;;;;;5068637;28;20380;-59
2021/07/11 02:03:41;;;;;;;6.13;3.50;;;17.40;99.90;;;;;;5069628;28;20419;-61
2021/07/11 02:06:09;;;;;;;7.82;4.07;;;17.20;99.90;;;;;;5071667;28;20528;-60
2021/07/11 02:08:39;;;;;;;9.50;4.07;;;17.00;99.90;;;;;;5072781;28;20403;-60
2021/07/11 02:11:05;;;;;;;7.93;3.65;;;17.00;99.90;;;;;;5073406;28;20406;-60
2021/07/11 02:13:36;;;;;;;6.50;3.35;;;17.00;99.90;;;;;;5071273;28;20391;-60
2021/07/11 02:16:09;;;;;;;7.57;3.60;;;17.00;99.90;;;;;;5073215;28;20379;-60
2021/07/11 02:18:39;;;;;;;10.93;3.58;;;17.10;99.90;;;;;;5072815;28;20741;-60
2021/07/11 02:21:06;;;;;;;7.65;3.60;;;17.10;99.90;;;;;;5073247;28;20397;-60
2021/07/11 02:23:33;;;;;;;8.63;3.47;;;17.00;99.90;;;;;;5072212;28;20383;-60
2021/07/11 02:25:59;;;;;;;6.90;3.55;;;17.00;99.90;;;;;;5073307;28;20466;-60
2021/07/11 02:28:30;;;;;;;7.65;3.60;;;17.00;99.90;;;;;;5075753;28;20470;-60
2021/07/11 02:31:00;;;;;;;6.23;3.60;;;17.00;99.90;;;;;;5084404;28;20409;-60
2021/07/11 02:33:32;;;;;;;7.15;3.42;;;16.90;99.90;;;;;;5092560;28;20389;-59
2021/07/11 02:36:00;;;;;;;7.80;3.65;;;16.90;99.90;;;;;;5093481;28;20393;-60
2021/07/11 02:38:44;;;;;;;10.00;4.38;;;16.90;99.90;;;;;;5092238;28;20378;-60
2021/07/11 02:41:11;;;;;;;6.60;3.70;;;16.80;99.90;;;;;;5092913;28;20438;-57
2021/07/11 02:43:40;;;;;;;7.53;4.00;;;16.80;99.90;;;;;;5092545;28;20769;-59
2021/07/11 02:46:07;;;;;;;10.05;3.83;;;16.90;99.90;;;;;;5091877;28;20397;-60
2021/07/11 02:48:35;;;;;;;8.70;3.65;;;16.90;99.90;;;;;;5092545;28;20459;-60
2021/07/11 02:51:02;;;;;;;8.02;3.50;;;17.00;99.90;;;;;;5091233;28;20398;-59
2021/07/11 02:53:28;;;;;;;7.63;3.40;;;17.00;99.90;;;;;;5092380;28;20405;-60
2021/07/11 02:55:56;;;;;;;8.70;3.83;;;17.00;99.90;;;;;;5091261;28;20728;-64
2021/07/11 02:58:24;;;;;;;9.85;3.60;;;17.00;99.90;;;;;;5092015;28;20397;-61
2021/07/11 03:00:51;;;;;;;7.82;3.35;;;17.10;99.90;;;;;;5092812;28;20443;-58
2021/07/11 03:03:19;;;;;;;9.52;4.00;;;17.10;99.90;;;;;;5092487;28;20400;-60
2021/07/11 03:05:46;;;;;;;8.98;3.53;;;17.10;99.90;;;;;;5092909;28;20401;-61
2021/07/11 03:08:12;;;;;;;9.18;4.60;;;17.00;99.90;;;;;;5090603;28;20397;-57
2021/07/11 03:10:40;;;;;;;8.30;4.05;;;16.80;99.90;;;;;;5092462;28;20504;-59
2021/07/11 03:13:06;;;;;;;7.70;3.88;;;16.70;99.90;;;;;;5092531;28;20433;-60
2021/07/11 03:15:33;;;;;;;7.05;3.65;;;16.70;99.90;;;;;;5091704;28;21071;-60
2021/07/11 03:18:00;;;;;;;7.47;3.40;;;16.70;99.90;;;;;;5092109;28;20534;-60
2021/07/11 03:20:27;;;;;;;10.60;4.00;;;16.70;99.90;;;;;;5091412;28;20382;-60
2021/07/11 03:22:54;;;;;;;11.20;3.83;;;16.80;99.90;;;;;;5092691;28;20911;-59
2021/07/11 03:25:20;;;;;;;8.30;3.90;;;16.80;99.90;;;;;;5091838;28;20382;-60
2021/07/11 03:27:47;;;;;;;11.32;4.00;;;16.80;99.90;;;;;;5092299;28;20427;-59
2021/07/11 03:30:18;;;;;;;7.82;4.00;;;16.80;99.90;;;;;;5091081;28;20418;-57
2021/07/11 03:32:53;;;;;;;8.60;3.38;;;16.80;99.90;;;;;;5092389;28;20464;-59
2021/07/11 03:35:33;;;;;;;7.47;3.95;;;16.70;99.90;;;;;;5091437;28;20398;-59
2021/07/11 03:38:00;;;;;;;8.27;3.63;;;16.70;99.90;;;;;;5092165;28;20516;-60
2021/07/11 03:40:29;;;;;;;7.70;3.60;;;16.70;99.90;;;;;;5091141;28;20468;-59
2021/07/11 03:42:57;;;;;;;11.70;3.97;;;16.70;99.90;;;;;;5091817;28;20417;-59
2021/07/11 03:45:25;;;;;;;10.23;4.38;;;16.70;99.90;;;;;;5091173;28;20401;-62
2021/07/11 03:47:58;;;;;;;6.97;3.42;;;16.70;99.90;;;;;;5091626;28;20435;-59
2021/07/11 03:50:26;;;;;;;9.05;4.40;;;16.90;99.90;;;;;;5090597;28;20408;-59
2021/07/11 03:53:04;;;;;;;7.70;3.83;;;17.00;99.90;;;;;;5091831;28;20389;-60
2021/07/11 03:55:32;;;;;;;8.40;3.90;;;17.10;99.90;;;;;;5091100;28;20423;-60
2021/07/11 03:57:59;;;;;;;7.25;3.92;;;17.10;99.90;;;;;;5091618;28;20457;-60
2021/07/11 04:00:25;;;;;;;10.02;3.80;;;17.10;99.90;;;;;;5090573;28;20863;-60
2021/07/11 04:02:52;;;;;;;11.35;3.40;;;17.20;99.90;;;;;;5091686;28;20381;-59
2021/07/11 04:05:22;;;;;;;7.75;3.40;;;17.20;99.90;;;;;;5090551;28;20386;-59
2021/07/11 04:07:50;;;;;;;6.90;3.60;;;17.10;99.90;;;;;;5091548;28;20385;-59
2021/07/11 04:10:17;;;;;;;6.40;3.20;;;17.00;99.90;;;;;;5090386;28;20505;-59
2021/07/11 04:12:43;;;;;;;8.43;3.80;;;16.90;99.90;;;;;;5091488;28;20377;-60
2021/07/11 04:15:09;;;;;;;10.32;4.15;;;17.00;99.90;;;;;;5091350;28;20736;-60
2021/07/11 04:17:38;;;;;;;9.30;3.70;;;17.00;99.90;;;;;;5091391;28;20868;-60
2021/07/11 04:20:06;;;;;;;10.27;3.75;;;17.10;99.90;;;;;;5091800;28;20437;-58
2021/07/11 04:22:32;;;;;;;10.95;4.00;;;17.10;99.90;;;;;;5090876;28;20378;-58
2021/07/11 04:25:00;;;;;;;10.18;3.70;;;17.20;99.90;;;;;;5091061;28;20465;-56
2021/07/11 04:27:26;;;;;;;8.80;3.78;;;17.10;99.90;;;;;;5090118;28;20379;-58
2021/07/11 04:29:52;;;;;;;9.20;3.80;;;17.00;99.90;;;;;;5090500;28;20452;-57
2021/07/11 04:32:18;;;;;;;7.75;4.20;;;17.10;99.90;;;;;;5090314;28;20396;-57
2021/07/11 04:34:44;;;;;;;9.55;3.90;;;17.30;99.90;;;;;;5090960;28;20400;-58
2021/07/11 04:37:14;;;;;;;9.23;4.03;;;17.40;99.90;;;;;;5090837;28;20421;-58
2021/07/11 04:39:40;;;;;;;8.07;3.58;;;16.00;99.90;;;;;;5090505;28;20438;-57
2021/07/11 04:42:05;;;;;;;9.80;3.80;;;17.40;99.90;;;;;;5090972;28;20374;-58
2021/07/11 04:44:32;;;;;;;6.47;3.20;;;17.50;99.90;;;;;;5089815;28;20397;-58
2021/07/11 04:46:58;;;;;;;9.40;3.50;;;17.60;99.90;;;;;;5090620;28;20470;-57
2021/07/11 04:49:24;;;;;;;7.18;3.40;;;17.70;99.90;;;;;;5089646;28;20377;-57
2021/07/11 04:51:52;;;;;;;7.70;3.75;;;17.70;99.90;;;;;;5090380;28;20470;-57
2021/07/11 04:54:17;;;;;;;5.57;3.50;;;17.70;99.90;;;;;;5089932;28;20382;-57
2021/07/11 04:56:43;;;;;;;9.07;3.90;;;17.70;99.90;;;;;;5089227;28;20426;-57
2021/07/11 04:59:09;;;;;;;10.15;3.70;;;17.60;99.90;;;;;;5090167;28;20379;-58
2021/07/11 05:01:35;;;;;;;9.63;4.00;;;17.60;99.90;;;;;;5089723;28;20519;-57
2021/07/11 05:04:04;;;;;;;8.27;3.95;;;17.70;99.90;;;;;;5088308;28;20382;-58
2021/07/11 05:06:29;;;;;;;6.72;3.67;;;17.80;99.90;;;;;;5089035;28;20936;-58
2021/07/11 05:08:55;;;;;;;8.38;3.88;;;17.90;99.90;;;;;;5089495;28;20402;-57
2021/07/11 05:11:21;;;;;;;8.93;3.90;;;17.90;99.90;;;;;;5088934;28;20899;-58
2021/07/11 05:13:47;;;;;;;10.57;4.00;;;17.90;99.90;;;;;;5089430;28;20389;-61
2021/07/11 05:16:12;;;;;;;8.00;3.83;;;18.00;99.90;;;;;;5089233;28;20386;-56
2021/07/11 05:18:38;;;;;;;8.50;4.00;;;18.10;99.90;;;;;;5088956;28;20819;-58
2021/07/11 05:21:04;;;;;;;8.63;3.35;;;18.20;99.90;;;;;;5090780;28;20450;-59
2021/07/11 05:23:30;;;;;;;7.83;3.93;;;18.20;99.90;;;;;;5098710;28;20430;-58
2021/07/11 05:25:56;;;;;;;6.22;3.50;;;18.10;99.90;;;;;;5101041;28;20384;-58
2021/07/11 05:28:21;;;;;;;8.90;3.60;;;18.00;99.90;;;;;;5099622;28;20379;-59
2021/07/11 05:30:47;;;;;;;8.32;3.30;;;18.00;99.90;;;;;;5099298;28;20403;-59
2021/07/11 05:33:13;;;;;;;8.93;4.25;;;18.00;99.90;;;;;;5098320;28;20399;-56
2021/07/11 05:35:39;;;;;;;10.60;3.80;;;18.00;99.90;;;;;;5100562;28;20391;-59
2021/07/11 05:38:05;;;;;;;7.57;3.80;;;18.00;99.90;;;;;;5099077;28;20382;-59
2021/07/11 05:40:31;;;;;;;8.13;3.90;;;17.90;99.90;;;;;;5096092;28;20869;-58
2021/07/11 05:42:56;;;;;;;6.40;4.10;;;18.00;99.90;;;;;;5099264;28;20469;-59
2021/07/11 05:45:22;;;;;;;10.03;4.20;;;18.00;99.90;;;;;;5094846;28;20876;-58
2021/07/11 05:47:48;;;;;;;6.70;3.90;;;18.00;99.90;;;;;;5100968;28;20385;-59
2021/07/11 05:50:14;;;;;;;7.80;3.95;;;18.00;99.90;;;;;;5086335;28;20500;-56
2021/07/11 05:52:41;;;;;;;7.00;3.40;;;18.10;99.90;;;;;;5083201;28;20406;-58
2021/07/11 05:55:07;;;;;;;7.65;3.75;;;18.20;99.90;;;;;;5088461;28;20515;-59
2021/07/11 05:57:34;;;;;;;8.57;3.30;;;18.40;99.90;;;;;;5086382;28;20889;-59
2021/07/11 06:00:00;;;;;;;11.80;4.00;;;18.60;99.90;;;;;;5088798;28;20386;-60
2021/07/11 06:02:27;;;;;;;7.32;2.90;;;19.00;99.90;;;;;;5087817;28;20501;-58
2021/07/11 06:04:53;;;;;;;8.75;3.17;;;19.50;99.90;;;;;;5087321;28;20382;-59
2021/07/11 06:07:19;;;;;;;8.80;3.67;;;19.80;99.90;;;;;;5087925;28;20386;-61
2021/07/11 06:09:45;;;;;;;7.85;3.60;;;20.00;99.90;;;;;;5088722;28;20467;-61
2021/07/11 06:12:10;;;;;;;7.40;3.50;;;20.50;99.90;;;;;;5085937;28;20398;-59
2021/07/11 06:14:36;;;;;;;7.78;3.05;;;21.30;99.90;;;;;;5085747;28;20374;-60
2021/07/11 06:17:02;;;;;;;5.95;2.78;;;22.20;99.90;;;;;;5084713;28;20790;-60
2021/07/11 06:19:28;;;;;;;9.23;3.08;;;23.30;99.90;;;;;;5077202;28;20887;-60
2021/07/11 06:21:53;;;;;;;6.27;2.90;;;23.80;99.90;;;;;;5084744;28;20410;-61
2021/07/11 06:24:20;;;;;;;6.63;3.17;;;22.80;99.90;;;;;;5087754;28;20378;-60
2021/07/11 06:26:46;;;;;;;7.40;3.10;;;21.80;99.90;;;;;;5088627;28;20443;-59
2021/07/11 06:29:13;;;;;;;7.45;3.00;;;21.10;99.90;;;;;;5088904;28;20388;-59
2021/07/11 06:31:38;;;;;;;7.60;3.13;;;20.60;99.90;;;;;;5087416;28;20734;-58
2021/07/11 06:34:04;;;;;;;7.40;3.30;;;20.00;99.90;;;;;;5088862;28;20750;-61
2021/07/11 06:36:32;;;;;;;7.00;2.90;;;19.90;99.90;;;;;;5086728;28;20903;-54
2021/07/11 06:39:04;;;;;;;6.10;2.80;;;19.90;99.90;;;;;;5089092;28;20382;-55
2021/07/11 06:41:30;;;;;;;7.40;3.10;;;19.90;99.90;;;;;;5087674;28;20895;-55
2021/07/11 06:43:56;;;;;;;7.90;3.05;;;20.00;99.90;;;;;;5088726;28;20374;-55
2021/07/11 06:46:22;;;;;;;6.70;3.20;;;20.30;99.90;;;;;;5086810;28;20438;-55
2021/07/11 06:48:48;;;;;;;5.97;2.70;;;20.40;99.90;;;;;;5082346;28;20386;-55
2021/07/11 06:51:13;;;;;;;7.15;3.10;;;20.80;99.90;;;;;;5087615;28;20779;-54
2021/07/11 06:53:39;;;;;;;5.53;2.60;;;21.40;99.90;;;;;;5080477;28;20429;-54
2021/07/11 06:56:05;;;;;;;5.90;2.60;;;21.50;99.90;;;;;;5088086;28;20390;-56
2021/07/11 06:58:31;;;;;;;7.20;3.20;;;21.20;99.90;;;;;;5073104;28;20380;-55
2021/07/11 07:00:57;;;;;;;6.65;3.20;;;21.50;99.90;;;;;;5089391;28;20397;-55
2021/07/11 07:03:23;;;;;;;6.75;3.40;;;21.50;99.90;;;;;;5084188;28;20873;-55
2021/07/11 07:05:48;;;;;;;6.73;2.77;;;22.20;99.90;;;;;;5077423;28;20420;-55
2021/07/11 07:08:14;;;;;;;8.20;2.93;;;23.20;99.90;;;;;;5081676;28;20419;-55
2021/07/11 07:10:40;;;;;;;5.78;2.80;;;23.60;99.90;;;;;;5074414;28;20933;-55
2021/07/11 07:13:06;;;;;;;6.00;3.20;;;22.60;99.90;;;;;;5081671;28;20376;-54
2021/07/11 07:15:31;;;;;;;6.43;2.77;;;22.30;99.90;;;;;;5070536;28;20710;-55
2021/07/11 07:17:57;;;;;;;7.90;2.80;;;22.20;99.90;;;;;;5086157;28;20395;-55
2021/07/11 07:20:23;;;;;;;5.90;2.80;;;22.70;99.90;;;;;;5090478;28;20393;-55
2021/07/11 07:22:49;;;;;;;6.25;2.90;;;23.10;99.90;;;;;;5090852;28;20370;-55
2021/07/11 07:25:16;;;;;;;5.20;2.30;;;23.80;99.90;;;;;;5091295;28;20381;-56
2021/07/11 07:27:43;;;;;;;6.55;2.97;;;23.60;99.90;;;;;;5088820;28;20381;-54
2021/07/11 07:30:09;;;;;;;5.70;2.58;;;23.30;99.90;;;;;;5091173;28;20424;-55
2021/07/11 07:32:36;;;;;;;7.20;2.88;;;23.80;99.90;;;;;;5090020;28;20436;-55
2021/07/11 07:35:02;;;;;;;6.80;2.50;;;24.10;99.90;;;;;;5086055;28;20413;-55
2021/07/11 07:37:28;;;;;;;5.38;1.95;;;24.10;99.90;;;;;;5090257;28;20394;-55
2021/07/11 07:39:54;;;;;;;5.22;2.55;;;25.60;99.90;;;;;;5088196;28;20386;-55
2021/07/11 07:42:19;;;;;;;5.90;2.30;;;25.60;99.90;;;;;;5090964;28;20382;-58
2021/07/11 07:44:45;;;;;;;6.50;2.40;;;25.90;99.90;;;;;;5091671;28;20374;-56
2021/07/11 07:47:10;;;;;;;5.40;2.40;;;26.40;99.90;;;;;;5091103;28;20761;-56
2021/07/11 07:49:36;;;;;;;5.67;2.53;;;25.80;99.90;;;;;;5090276;28;20378;-56
2021/07/11 07:52:02;;;;;;;4.80;2.10;;;24.90;99.90;;;;;;5091098;28;20409;-55
2021/07/11 07:54:28;;;;;;;6.15;2.50;;;24.70;99.90;;;;;;5087439;28;20382;-56
2021/07/11 07:56:54;;;;;;;6.30;2.30;;;25.00;99.90;;;;;;5090983;28;20414;-55
2021/07/11 07:59:20;;;;;;;5.93;2.40;;;24.50;99.90;;;;;;5088273;28;20436;-58
2021/07/11 08:01:45;;;;;;;6.20;2.70;;;23.90;99.90;;;;;;5089938;28;20923;-55
2021/07/11 08:04:11;;;;;;;6.80;2.65;;;23.80;99.90;;;;;;5088904;28;20762;-55
2021/07/11 08:06:38;;;;;;;7.35;2.90;;;23.30;99.90;;;;;;5090061;28;21068;-56
2021/07/11 08:09:04;;;;;;;6.00;2.40;;;23.20;99.90;;;;;;5088532;28;20437;-53
2021/07/11 08:11:30;;;;;;;7.15;2.20;;;24.10;99.90;;;;;;5088589;28;20406;-53
2021/07/11 08:13:56;;;;;;;5.10;2.10;;;25.10;99.90;;;;;;5090145;28;20515;-56
2021/07/11 08:16:22;;;;;;;5.97;2.57;;;26.20;99.90;;;;;;5090238;28;20421;-58
2021/07/11 08:18:49;;;;;;;5.70;2.30;;;27.00;99.90;;;;;;5085890;28;20419;-56
2021/07/11 08:21:15;;;;;;;5.90;2.40;;;26.90;99.90;;;;;;5090105;28;20404;-56
2021/07/11 08:23:40;;;;;;;6.10;2.40;;;28.00;99.90;;;;;;5089576;28;20455;-56
2021/07/11 08:26:06;;;;;;;5.10;2.50;;;27.20;99.90;;;;;;5090675;28;20414;-56
2021/07/11 08:28:32;;;;;;;8.05;3.00;;;27.70;99.90;;;;;;5089726;28;20394;-56
2021/07/11 08:30:57;;;;;;;5.20;2.30;;;26.90;99.80;;;;;;5090486;28;20398;-53
2021/07/11 08:33:23;;;;;;;6.35;2.28;;;25.60;99.90;;;;;;5087459;28;20376;-54
2021/07/11 08:35:49;;;;;;;6.20;2.40;;;24.50;99.90;;;;;;5089749;28;20404;-54
2021/07/11 08:38:15;;;;;;;7.10;2.30;;;24.60;99.90;;;;;;5089497;28;20385;-53
2021/07/11 08:40:40;;;;;;;5.97;2.20;;;25.30;99.90;;;;;;5089579;28;20851;-53
2021/07/11 08:43:08;;;;;;;6.20;2.20;;;25.20;99.90;;;;;;5089472;28;20370;-53
2021/07/11 08:45:35;;;;;;;6.60;2.40;;;24.60;99.90;;;;;;5089829;28;20381;-54
2021/07/11 08:48:01;;;;;;;9.40;2.90;;;25.10;99.90;;;;;;5087635;28;20378;-53
2021/07/11 08:50:28;;;;;;;5.00;2.00;;;24.30;99.90;;;;;;5088799;28;20525;-54
2021/07/11 08:52:55;;;;;;;6.20;2.00;;;25.20;99.90;;;;;;5089604;28;20387;-56
2021/07/11 08:55:23;;;;;;;5.35;2.05;;;26.40;99.90;;;;;;5111159;27;20395;-56
2021/07/11 08:57:52;;;;;;;6.28;2.00;;;25.10;99.90;;;;;;5089558;28;20374;-53
2021/07/11 09:00:23;;;;;;;5.22;1.65;;;25.30;99.90;;;;;;5087823;28;20898;-58
2021/07/11 09:02:48;;;;;;;5.50;2.40;;;26.80;99.90;;;;;;5090358;28;20476;-56
2021/07/11 09:05:25;;;;;;;7.57;3.70;;;27.00;99.90;;;;;;5088915;28;20493;-56
2021/07/11 09:08:03;;;;;;;10.30;3.17;;;25.70;99.90;;;;;;5088415;28;20413;-56
2021/07/11 09:10:40;;;;;;;5.47;2.20;;;24.60;99.90;;;;;;5085497;28;20429;-56
2021/07/11 09:13:15;;;;;;;6.40;2.25;;;24.60;99.90;;;;;;5087477;28;20851;-54
2021/07/11 09:15:51;;;;;;;5.93;2.50;;;25.80;99.90;;;;;;5085793;28;20974;-55
2021/07/11 09:18:29;;;;;;;6.18;2.70;;;26.30;99.90;;;;;;5089589;28;20378;-55
2021/07/11 09:20:56;;;;;;;6.25;2.10;;;25.80;99.90;;;;;;5087939;28;20398;-55
2021/07/11 09:23:23;;;;;;;6.10;2.90;;;25.20;99.90;;;;;;5088764;28;20386;-57
2021/07/11 09:26:09;;;;;;;4.70;2.05;;;25.20;99.90;;;;;;5088045;28;20794;-55
2021/07/11 09:28:50;;;;;;;9.20;2.30;;;25.50;99.90;;;;;;5088246;28;20465;-55
2021/07/11 09:31:23;;;;;;;5.72;2.33;;;24.80;99.90;;;;;;5087134;28;20413;-55
2021/07/11 09:33:57;;;;;;;5.90;2.20;;;25.20;99.90;;;;;;5086987;28;20382;-54
2021/07/11 09:36:23;;;;;;;6.85;2.20;;;26.50;99.90;;;;;;5084575;28;20886;-55
2021/07/11 09:38:54;;;;;;;5.20;2.50;;;26.90;99.50;;;;;;5086531;28;20401;-56
2021/07/11 09:41:29;;;;;;;5.20;2.10;;;27.10;99.90;;;;;;5080438;28;20764;-59
2021/07/11 09:43:57;;;;;;;5.25;2.10;;;27.10;97.80;;;;;;5083425;28;20435;-55
2021/07/11 09:46:25;;;;;;;5.40;2.10;;;26.50;99.50;;;;;;5083433;28;20444;-57
2021/07/11 09:48:51;;;;;;;5.90;2.13;;;25.70;99.50;;;;;;5086289;28;20394;-53
2021/07/11 09:51:22;;;;;;;5.45;2.58;;;24.80;99.90;;;;;;5084381;28;20413;-53
2021/07/11 09:53:49;;;;;;;6.70;2.40;;;24.10;99.90;;;;;;5083826;28;20683;-55
2021/07/11 09:56:31;;;;;;;5.60;2.50;;;23.70;99.90;;;;;;5076548;28;20410;-55
2021/07/11 09:58:57;;;;;;;5.30;2.20;;;23.60;99.90;;;;;;5082912;28;20382;-56
2021/07/11 10:01:23;;;;;;;5.32;2.10;;;23.40;99.90;;;;;;5087294;28;20390;-58
2021/07/11 10:03:50;;;;;;;6.53;2.80;;;23.50;99.90;;;;;;5088822;28;20457;-55
2021/07/11 10:06:15;;;;;;;7.70;3.30;;;23.20;99.90;;;;;;5089018;28;20386;-55
2021/07/11 10:08:42;;;;;;;6.70;2.23;;;23.20;99.90;;;;;;5088418;28;20406;-56
2021/07/11 10:11:08;;;;;;;8.20;2.40;;;22.90;99.90;;;;;;5078142;28;20411;-56
2021/07/11 10:13:34;;;;;;;5.90;2.40;;;23.00;99.90;;;;;;5067899;28;20797;-56
2021/07/11 10:16:01;;;;;;;7.45;2.83;;;23.40;99.90;;;;;;5085245;28;20472;-58
2021/07/11 10:18:29;;;;;;;6.30;2.50;;;24.00;99.90;;;;;;5066811;28;20795;-58
2021/07/11 10:20:57;;;;;;;5.65;2.33;;;24.30;99.90;;;;;;5068857;28;20380;-58
2021/07/11 10:23:25;;;;;;;6.70;2.30;;;24.70;99.90;;;;;;5068919;28;20379;-57
2021/07/11 10:25:59;;;;;;;5.40;1.92;;;25.10;99.90;;;;;;5069051;28;20380;-61
2021/07/11 10:28:27;;;;;;;5.13;2.40;;;24.90;99.90;;;;;;5078512;28;20480;-58
2021/07/11 10:30:53;;;;;;;5.73;2.20;;;24.70;99.90;;;;;;5078234;28;20438;-59
2021/07/11 10:33:24;;;;;;;5.30;2.40;;;25.00;99.90;;;;;;5072439;28;20487;-59
2021/07/11 10:35:55;;;;;;;6.25;2.60;;;24.10;99.90;;;;;;5072833;28;20394;-58
2021/07/11 10:38:39;;;;;;;7.30;2.40;;;24.00;99.90;;;;;;5079215;28;20517;-57
2021/07/11 10:41:12;;;;;;;6.20;2.40;;;23.80;99.90;;;;;;5091091;28;20385;-59
2021/07/11 10:43:39;;;;;;;7.55;2.33;;;23.50;99.90;;;;;;5082075;28;20879;-60
2021/07/11 10:46:05;;;;;;;5.90;2.30;;;23.70;99.90;;;;;;5082203;28;20374;-59
2021/07/11 10:48:31;;;;;;;5.40;2.05;;;23.90;99.90;;;;;;5091726;28;20854;-59
2021/07/11 10:50:58;;;;;;;6.43;2.30;;;23.90;99.90;;;;;;5092141;28;20405;-58
2021/07/11 10:53:29;;;;;;;5.70;2.13;;;23.90;99.90;;;;;;5091953;28;20867;-58
2021/07/11 10:55:55;;;;;;;6.70;2.50;;;24.10;99.90;;;;;;5088338;28;20387;-59
2021/07/11 10:58:21;;;;;;;7.32;2.50;;;24.30;99.90;;;;;;5072094;28;20386;-59
2021/07/11 11:00:49;;;;;;;5.57;2.13;;;24.40;99.90;;;;;;5086466;28;20413;-58
2021/07/11 11:03:20;;;;;;;7.67;2.60;;;24.50;99.90;;;;;;5092481;28;20378;-58
2021/07/11 11:05:48;;;;;;;5.20;2.22;;;24.60;99.90;;;;;;5091576;28;20393;-58
2021/07/11 11:08:19;;;;;;;6.60;2.20;;;25.10;99.90;;;;;;5091821;28;20375;-58
2021/07/11 11:10:47;;;;;;;6.40;2.47;;;24.80;99.90;;;;;;5091570;28;21016;-58
2021/07/11 11:13:25;;;;;;;5.18;2.45;;;24.60;99.90;;;;;;5091600;28;20879;-59
2021/07/11 11:15:55;;;;;;;6.13;2.20;;;24.50;99.90;;;;;;5091419;28;20382;-60
2021/07/11 11:18:25;;;;;;;6.75;2.90;;;24.70;99.90;;;;;;5081110;28;20413;-59
2021/07/11 11:21:08;;;;;;;5.60;2.17;;;25.30;99.90;;;;;;5081887;28;20394;-59
2021/07/11 11:23:38;;;;;;;5.35;2.20;;;25.80;99.90;;;;;;5085077;28;20424;-59
2021/07/11 11:26:05;;;;;;;5.40;2.20;;;26.30;99.90;;;;;;5091319;28;20401;-59
2021/07/11 11:28:40;;;;;;;5.78;2.38;;;26.10;99.10;;;;;;5077484;28;20388;-58
2021/07/11 11:31:20;;;;;;;5.97;2.30;;;25.50;99.90;;;;;;5071937;28;20410;-58
2021/07/11 11:34:08;;;;;;;5.63;2.00;;;24.80;99.90;;;;;;5071698;28;20454;-58
2021/07/11 11:36:40;;;;;;;6.40;2.45;;;24.50;99.90;;;;;;5119697;27;20407;-58
2021/07/11 11:39:12;;;;;;;6.00;2.65;;;24.70;99.90;;;;;;5088504;28;20378;-58
2021/07/11 11:41:40;;;;;;;5.78;2.40;;;24.60;99.90;;;;;;5073431;28;20465;-58
2021/07/11 11:44:07;;;;;;;6.57;2.50;;;25.00;99.90;;;;;;5071345;28;20380;-58
2021/07/11 11:46:33;;;;;;;5.63;2.30;;;24.80;99.90;;;;;;5071073;28;20384;-58
2021/07/11 11:49:02;;;;;;;8.07;2.30;;;25.00;99.90;;;;;;5072111;28;20437;-58
2021/07/11 11:51:29;;;;;;;4.80;1.90;;;24.90;99.90;;;;;;5070527;28;20408;-58
2021/07/11 11:53:55;;;;;;;5.20;2.00;;;25.00;99.90;;;;;;5076272;28;20783;-58
2021/07/11 11:56:21;;;;;;;6.13;2.03;;;25.10;99.90;;;;;;5073547;28;20468;-58
2021/07/11 11:58:47;;;;;;;5.50;2.03;;;25.10;99.50;;;;;;5074409;28;20482;-58
2021/07/11 12:01:15;;;;;;;6.50;2.50;;;25.00;99.90;;;;;;5088087;28;20863;-58
2021/07/11 12:03:42;;;;;;;4.95;1.90;;;24.90;99.90;;;;;;5075907;28;20749;-57
2021/07/11 12:06:14;;;;;;;5.43;2.10;;;25.10;99.90;;;;;;5079262;28;20386;-59
2021/07/11 12:08:42;;;;;;;5.25;2.40;;;25.00;99.90;;;;;;5091050;28;20432;-57
2021/07/11 12:11:09;;;;;;;5.90;2.40;;;24.80;99.90;;;;;;5091017;28;20433;-59
2021/07/11 12:13:36;;;;;;;5.90;2.00;;;25.00;99.90;;;;;;5090827;28;20377;-58
2021/07/11 12:16:07;;;;;;;5.18;2.30;;;25.00;99.90;;;;;;5073296;28;20422;-58
2021/07/11 12:18:53;;;;;;;5.90;2.20;;;24.80;99.90;;;;;;5090436;28;20390;-58
2021/07/11 12:21:28;;;;;;;6.50;2.60;;;25.00;99.90;;;;;;5072671;28;20416;-58
2021/07/11 12:23:57;;;;;;;6.10;2.50;;;25.00;99.90;;;;;;5075634;28;20758;-58
2021/07/11 12:26:24;;;;;;;5.30;2.10;;;25.10;99.90;;;;;;5074278;28;20376;-55
2021/07/11 12:28:52;;;;;;;5.30;2.30;;;25.50;99.90;;;;;;5074081;28;20481;-58
2021/07/11 12:31:22;;;;;;;5.60;2.40;;;25.90;99.80;;;;;;5081664;28;20415;-58
2021/07/11 12:33:54;;;;;;;5.63;2.08;;;26.10;99.40;;;;;;5077237;28;20450;-60
2021/07/11 12:36:20;;;;;;;4.90;1.80;;;25.60;99.40;;;;;;5081168;28;20396;-58
2021/07/11 12:38:46;;;;;;;5.50;1.90;;;25.80;98.10;;;;;;5073229;28;20729;-58
2021/07/11 12:41:12;;;;;;;4.87;1.90;;;26.10;98.00;;;;;;5082323;28;20877;-58
2021/07/11 12:43:53;;;;;;;5.50;2.00;;;25.80;97.10;;;;;;5079452;28;20504;-58
2021/07/11 12:46:26;;;;;;;4.82;2.00;;;26.10;98.40;;;;;;5082643;28;20747;-59
2021/07/11 12:49:08;;;;;;;6.05;2.58;;;26.20;97.40;;;;;;5077028;28;20481;-58